logo tempoitalia

Diretta Meteo Vamdrup, Danimarcalunedì 31 agosto ore 07:20

Mappa
Sereno 16 °C Sereno 24 Ore: T.min 13 T.max 20
Ponente Sud Km/h 13 Punto di rugiada: 15 °C Umidità: 93% Visibilità: 0 Km
Il sole sorge alle: 06:26 Il sole tramonta alle: 20:19
31 Agosto 2026 07:20 tempo osservato: Sereno Sereno 16 93 1006 vento: Nord S 13
31 Agosto 2026 06:50 tempo osservato: Sereno Sereno 16 93 1007 vento: Nord S 11.1
31 Agosto 2026 06:20 tempo osservato: Sereno Sereno 15 100 1007 vento: Nord S/SE 9.3
31 Agosto 2026 05:50 tempo osservato: Sereno Sereno 15 93 1007 vento: Nord SE 9.3
31 Agosto 2026 05:20 tempo osservato: Sereno Sereno 14 100 1007 vento: Nord N 5.5
31 Agosto 2026 04:50 tempo osservato: Sereno Sereno 14 100 1007 vento: Nord N 5.5
31 Agosto 2026 04:20 tempo osservato: Sereno Sereno 14 100 1008 vento: Nord S/SE 7.4
31 Agosto 2026 03:50 tempo osservato: Sereno Sereno 14 93 1008 vento: Nord SE 7.4
31 Agosto 2026 03:20 tempo osservato: Sereno Sereno 13 100 1008 vento: Nord S/SE 7.4
31 Agosto 2026 02:50 tempo osservato: Sereno Sereno 13 100 1009 vento: Nord S 7.4
31 Agosto 2026 02:20 tempo osservato: Sereno Sereno 14 93 1009 vento: Nord S 7.4
31 Agosto 2026 01:50 tempo osservato: Sereno Sereno 14 93 1009 vento: Nord S 7.4
31 Agosto 2026 01:20 tempo osservato: Sereno Sereno 14 93 1009 vento: Nord S 7.4
31 Agosto 2026 00:50 tempo osservato: Sereno Sereno 15 93 1009 vento: Nord S 7.4
31 Agosto 2026 00:20 tempo osservato: Sereno Sereno 15 93 1009 vento: Nord S 7.4
30 Agosto 2026 23:50 tempo osservato: Sereno Sereno 15 93 1009 vento: Nord S 7.4
30 Agosto 2026 23:20 tempo osservato: Sereno Sereno 15 93 1009 vento: Nord N 5.5
30 Agosto 2026 22:50 tempo osservato: Sereno Sereno 16 87 1009 vento: Nord S/SO 9.3
30 Agosto 2026 22:20 tempo osservato: Sereno Sereno 16 87 1009 vento: Nord SO 7.4
30 Agosto 2026 21:50 tempo osservato: Sereno Sereno 16 87 1009 vento: Nord O/SO 9.3
30 Agosto 2026 21:20 tempo osservato: Sereno Sereno 16 87 1009 vento: Nord O 14.8
30 Agosto 2026 20:50 tempo osservato: Sereno Sereno 17 82 1009 vento: Nord O 16.7
30 Agosto 2026 20:20 tempo osservato: Sereno Sereno 17 82 1008 vento: Nord O 18.5
30 Agosto 2026 19:50 tempo osservato: Sereno Sereno 17 82 1008 vento: Nord O/SO 18.5
30 Agosto 2026 19:20 tempo osservato: Sereno Sereno 17 82 1008 vento: Nord O 18.5
30 Agosto 2026 18:50 tempo osservato: Sereno Sereno 18 77 1008 vento: Nord O 20.3
30 Agosto 2026 18:20 tempo osservato: Sereno Sereno 18 77 1007 vento: Nord O 18.5
30 Agosto 2026 17:50 tempo osservato: Sereno Sereno 18 77 1007 vento: Nord O 20.3
30 Agosto 2026 15:50 tempo osservato: Molto Nuvoloso Molto Nuvoloso 19 77 1005 vento: Nord O/NO 24
30 Agosto 2026 14:50 tempo osservato: Molto Nuvoloso Molto Nuvoloso 19 82 1004 vento: Nord O/NO 25.9
30 Agosto 2026 13:50 tempo osservato: Pioggia Pioggia 20 82 1003 vento: Nord O 18.5
30 Agosto 2026 12:50 tempo osservato: Molto Nuvoloso Molto Nuvoloso 20 82 1002 vento: Nord NO 18.5
30 Agosto 2026 11:50 tempo osservato: Pioggia Pioggia 19 93 1001 vento: Nord O/SO 13
30 Agosto 2026 10:50 tempo osservato: Molto Nuvoloso Molto Nuvoloso 18 93 1001 vento: Nord S 7.4
30 Agosto 2026 09:50 tempo osservato: Pioggia Pioggia 16 100 1001 vento: Nord S/SE 7.4
30 Agosto 2026 08:50 tempo osservato: Pioggia Pioggia 17 93 1001 vento: Nord S/SE 7.4
30 Agosto 2026 08:20 tempo osservato: Sereno Sereno 17 93 1001 vento: Nord N 3.7
30 Agosto 2026 07:50 tempo osservato: Sereno Sereno 17 93 1001 vento: Nord S/SO 9.3